Time;durP1;ratioP1;P1;durP2;ratioP2;P2;SDS_P1;SDS_P2;PMS_P1;PMS_P2;Temp;Humidity;BMP_temperature;BMP_pressure;BME280_temperature;BME280_humidity;BME280_pressure;Samples;Min_cycle;Max_cycle;Signal;HPM_P1;HPM_P2
2023/11/14 00:00:39;;;;;;;0.75;0.60;;;;;;;14.27;100.00;95134.13;6157881;23;20394;-83
2023/11/14 00:03:05;;;;;;;0.77;0.77;;;;;;;14.24;100.00;95126.78;6150859;23;20179;-84
2023/11/14 00:05:34;;;;;;;1.65;0.70;;;;;;;14.27;100.00;95156.63;6151279;23;20179;-84
2023/11/14 00:08:00;;;;;;;0.60;0.60;;;;;;;14.20;100.00;95185.19;6151258;23;20195;-84
2023/11/14 00:10:27;;;;;;;1.50;0.90;;;;;;;14.22;100.00;95185.78;6151123;23;20396;-84
2023/11/14 00:12:54;;;;;;;0.80;0.75;;;;;;;14.20;100.00;95208.47;6151352;23;20182;-84
2023/11/14 00:15:20;;;;;;;0.90;0.77;;;;;;;14.13;100.00;95212.88;6151320;23;20257;-84
2023/11/14 00:17:49;;;;;;;1.17;0.90;;;;;;;14.17;100.00;95242.56;6150039;23;20199;-84
2023/11/14 00:20:16;;;;;;;0.80;0.80;;;;;;;14.17;100.00;95265.84;6150849;23;20286;-84
2023/11/14 00:22:43;;;;;;;0.70;0.70;;;;;;;14.15;100.00;95268.66;6151070;23;20257;-84
2023/11/14 00:25:10;;;;;;;0.70;0.70;;;;;;;14.17;100.00;95268.44;6149792;23;20225;-84
2023/11/14 00:27:37;;;;;;;1.00;0.80;;;;;;;14.21;100.00;95263.66;6150649;23;20226;-84
2023/11/14 00:30:06;;;;;;;0.93;0.90;;;;;;;14.19;100.00;95269.03;6150882;23;20175;-84
2023/11/14 00:32:32;;;;;;;2.67;0.90;;;;;;;14.15;100.00;95281.59;6150450;23;20187;-84
2023/11/14 00:35:00;;;;;;;0.82;0.82;;;;;;;14.20;100.00;95293.13;6150744;23;20178;-85
2023/11/14 00:37:27;;;;;;;1.45;1.00;;;;;;;14.25;100.00;95294.09;6150453;23;20199;-84
2023/11/14 00:39:54;;;;;;;0.90;0.90;;;;;;;14.21;100.00;95308.47;6150859;23;20236;-84
2023/11/14 00:42:20;;;;;;;1.80;0.70;;;;;;;14.18;100.00;95304.50;6151154;23;20181;-84
2023/11/14 00:44:47;;;;;;;1.92;1.27;;;;;;;14.18;100.00;95308.88;6151020;23;20234;-84
2023/11/14 00:47:13;;;;;;;1.05;0.75;;;;;;;14.12;100.00;95300.13;6150642;23;20530;-85
2023/11/14 00:49:39;;;;;;;0.90;0.88;;;;;;;14.13;100.00;95303.50;6150955;23;20259;-84
2023/11/14 00:52:07;;;;;;;0.70;0.70;;;;;;;14.08;100.00;95295.56;6150376;23;20234;-85
2023/11/14 00:54:34;;;;;;;0.63;0.63;;;;;;;14.05;100.00;95303.72;6150393;23;20159;-84
2023/11/14 00:57:00;;;;;;;0.80;0.80;;;;;;;14.00;100.00;95326.84;6150451;23;20205;-84
2023/11/14 00:59:27;;;;;;;0.93;0.80;;;;;;;13.99;100.00;95336.41;6150070;23;20185;-84
2023/11/14 01:01:54;;;;;;;0.80;0.80;;;;;;;13.98;100.00;95352.94;6150459;23;20181;-84
2023/11/14 01:04:21;;;;;;;0.82;0.82;;;;;;;14.01;100.00;95362.09;6150356;23;20265;-84
2023/11/14 01:06:47;;;;;;;0.95;0.80;;;;;;;14.03;100.00;95354.94;6150094;23;20277;-84
2023/11/14 01:09:15;;;;;;;1.15;0.80;;;;;;;14.04;100.00;95341.00;6150585;23;20174;-84
2023/11/14 01:11:41;;;;;;;0.63;0.63;;;;;;;14.08;100.00;95292.97;6149977;23;20667;-84
2023/11/14 01:14:08;;;;;;;0.98;0.68;;;;;;;14.02;100.00;95345.56;6150761;23;20638;-84
2023/11/14 01:16:35;;;;;;;0.70;0.70;;;;;;;14.01;100.00;95354.34;6150522;23;20179;-85
2023/11/14 01:19:02;;;;;;;1.17;0.60;;;;;;;13.98;100.00;95371.06;6150779;23;20183;-84
2023/11/14 01:21:29;;;;;;;0.60;0.60;;;;;;;13.96;100.00;95372.25;6150938;23;20175;-84
2023/11/14 01:23:55;;;;;;;1.42;0.80;;;;;;;13.99;100.00;95343.38;6149392;23;20261;-84
2023/11/14 01:26:24;;;;;;;0.63;0.63;;;;;;;13.97;100.00;95369.47;6150595;23;20185;-84
2023/11/14 01:28:50;;;;;;;0.75;0.70;;;;;;;13.96;100.00;95373.06;6150781;23;20265;-84
2023/11/14 01:31:21;;;;;;;0.75;0.60;;;;;;;13.95;100.00;95376.63;6150447;23;20198;-84
2023/11/14 01:33:47;;;;;;;1.48;0.60;;;;;;;13.97;100.00;95379.03;6150395;23;20174;-84
2023/11/14 01:36:14;;;;;;;1.02;0.60;;;;;;;14.00;100.00;95389.78;6150085;23;20202;-85
2023/11/14 01:38:40;;;;;;;0.63;0.63;;;;;;;13.92;100.00;95402.91;6151955;23;20209;-84
2023/11/14 01:41:07;;;;;;;1.27;0.60;;;;;;;13.79;100.00;95390.00;6149907;23;20186;-84
2023/11/14 01:43:42;;;;;;;0.70;0.70;;;;;;;13.67;100.00;95369.09;6150796;23;20175;-84
2023/11/14 01:46:09;;;;;;;1.05;0.70;;;;;;;13.56;100.00;95350.81;6151849;23;20502;-85
2023/11/14 01:48:36;;;;;;;2.13;0.70;;;;;;;13.46;100.00;95362.38;6151668;23;20202;-84
2023/11/14 01:51:03;;;;;;;1.42;0.88;;;;;;;13.44;100.00;95366.94;6152762;23;20186;-85
2023/11/14 01:53:30;;;;;;;0.70;0.70;;;;;;;13.38;100.00;95362.56;6155736;23;20187;-84
2023/11/14 01:55:57;;;;;;;1.20;0.70;;;;;;;13.25;100.00;95361.78;6155375;23;20205;-85
2023/11/14 01:58:23;;;;;;;1.43;0.90;;;;;;;13.12;100.00;95337.44;6154216;23;20538;-85
2023/11/14 02:00:51;;;;;;;2.70;1.10;;;;;;;13.06;100.00;95324.56;6154874;23;20522;-84
2023/11/14 02:03:18;;;;;;;3.60;1.20;;;;;;;12.97;100.00;95305.03;6156196;23;20178;-85
2023/11/14 02:05:45;;;;;;;3.57;1.20;;;;;;;12.89;100.00;95313.81;6155533;23;20199;-85
2023/11/14 02:08:11;;;;;;;1.43;1.17;;;;;;;12.87;100.00;95300.28;6157600;23;20195;-84
2023/11/14 02:10:38;;;;;;;3.33;1.57;;;;;;;12.76;100.00;95280.97;6157027;23;20186;-85
2023/11/14 02:13:05;;;;;;;3.67;1.20;;;;;;;12.74;100.00;95280.38;6158382;23;20179;-85
2023/11/14 02:15:32;;;;;;;2.90;1.20;;;;;;;12.73;100.00;95258.13;6158215;23;20626;-84
2023/11/14 02:18:00;;;;;;;2.37;1.20;;;;;;;12.70;100.00;95255.16;6157925;23;20283;-84
2023/11/14 02:20:26;;;;;;;3.67;1.43;;;;;;;12.73;100.00;95265.88;6159585;23;20175;-85
2023/11/14 02:22:53;;;;;;;2.00;1.23;;;;;;;12.72;100.00;95269.44;6160788;23;20175;-84
2023/11/14 02:25:22;;;;;;;4.50;1.30;;;;;;;12.68;100.00;95293.31;6157952;23;20201;-84
2023/11/14 02:27:49;;;;;;;3.20;1.40;;;;;;;12.63;100.00;95293.09;6158188;23;20199;-85
2023/11/14 02:30:15;;;;;;;3.90;1.50;;;;;;;12.61;100.00;95282.16;6158547;23;20213;-84
2023/11/14 02:32:41;;;;;;;4.03;1.20;;;;;;;12.60;100.00;95288.31;6160461;23;20186;-84
2023/11/14 02:35:08;;;;;;;3.60;1.23;;;;;;;12.55;100.00;95294.06;6159630;23;20194;-85
2023/11/14 02:37:35;;;;;;;2.47;1.20;;;;;;;12.46;100.00;95308.16;6159907;23;20226;-84
2023/11/14 02:40:03;;;;;;;3.83;1.50;;;;;;;12.37;100.00;95306.72;6159543;23;20175;-85
2023/11/14 02:42:31;;;;;;;4.20;1.47;;;;;;;12.37;100.00;95317.03;6158767;23;20666;-84
2023/11/14 02:44:57;;;;;;;4.37;1.53;;;;;;;12.32;100.00;95338.28;6157178;23;20201;-84
2023/11/14 02:47:24;;;;;;;4.57;1.50;;;;;;;12.36;100.00;95331.75;6156661;23;20199;-84
2023/11/14 02:49:58;;;;;;;4.77;1.57;;;;;;;12.31;100.00;95341.06;6157050;23;20209;-84
2023/11/14 02:52:24;;;;;;;4.27;1.57;;;;;;;12.40;100.00;95345.84;6156611;23;20251;-84
2023/11/14 02:54:51;;;;;;;2.97;1.43;;;;;;;12.37;100.00;95360.94;6157868;23;20164;-85
2023/11/14 02:57:18;;;;;;;2.70;1.47;;;;;;;12.35;100.00;95353.38;6157121;23;20199;-85
2023/11/14 02:59:46;;;;;;;3.50;1.30;;;;;;;12.39;100.00;95359.75;6156865;23;20511;-84
2023/11/14 03:02:13;;;;;;;4.70;1.57;;;;;;;12.34;100.00;95349.19;6156527;23;20190;-85
2023/11/14 03:04:39;;;;;;;4.07;1.43;;;;;;;12.33;100.00;95357.13;6157433;23;20206;-85
2023/11/14 03:07:06;;;;;;;3.70;1.40;;;;;;;12.35;100.00;95361.13;6156824;23;20203;-84
2023/11/14 03:09:35;;;;;;;4.27;1.60;;;;;;;12.33;100.00;95359.72;6157750;23;20230;-85
2023/11/14 03:12:01;;;;;;;5.10;1.83;;;;;;;12.33;100.00;95346.81;6158085;23;20209;-85
2023/11/14 03:14:28;;;;;;;4.87;1.93;;;;;;;12.27;100.00;95350.19;6156504;23;20258;-84
2023/11/14 03:16:56;;;;;;;4.47;1.80;;;;;;;12.29;100.00;95348.22;6156900;23;20274;-85
2023/11/14 03:19:22;;;;;;;2.80;1.37;;;;;;;12.29;100.00;95332.72;6157185;23;20714;-85
2023/11/14 03:21:49;;;;;;;5.30;1.90;;;;;;;12.31;100.00;95338.50;6157093;23;20186;-84
2023/11/14 03:24:15;;;;;;;3.67;1.30;;;;;;;12.37;100.00;95340.28;6157025;23;20179;-84
2023/11/14 03:26:42;;;;;;;6.80;1.63;;;;;;;12.35;100.00;95334.50;6158114;23;20222;-84
2023/11/14 03:29:10;;;;;;;3.57;1.50;;;;;;;12.36;100.00;95336.91;6157833;23;20186;-84
2023/11/14 03:31:36;;;;;;;3.17;1.30;;;;;;;12.31;100.00;95347.03;6157932;23;20171;-85
2023/11/14 03:34:05;;;;;;;4.87;1.30;;;;;;;12.26;100.00;95327.94;6157241;23;20194;-85
2023/11/14 03:36:31;;;;;;;5.20;1.60;;;;;;;12.29;100.00;95335.31;6157098;23;20179;-84
2023/11/14 03:38:58;;;;;;;7.10;2.10;;;;;;;12.34;100.00;95323.38;6157879;23;20518;-84
2023/11/14 03:41:24;;;;;;;7.70;1.63;;;;;;;12.28;100.00;95320.81;6157504;23;20504;-85
2023/11/14 03:43:50;;;;;;;5.17;1.93;;;;;;;12.28;100.00;95331.13;6158126;23;20179;-84
2023/11/14 03:46:17;;;;;;;4.37;1.50;;;;;;;12.24;100.00;95333.28;6157572;23;20194;-84
2023/11/14 03:48:43;;;;;;;5.23;1.83;;;;;;;12.24;100.00;95335.88;6158213;23;20199;-85
2023/11/14 03:51:11;;;;;;;3.57;1.77;;;;;;;12.19;100.00;95335.66;6158781;23;20484;-84
2023/11/14 03:53:38;;;;;;;5.50;1.53;;;;;;;12.25;100.00;95329.72;6158408;23;20182;-84
2023/11/14 03:56:05;;;;;;;6.63;1.73;;;;;;;12.24;100.00;95328.13;6158917;23;20219;-85
2023/11/14 03:58:32;;;;;;;5.13;1.50;;;;;;;12.19;100.00;95324.53;6156772;23;20199;-84
2023/11/14 04:00:58;;;;;;;5.60;1.90;;;;;;;12.16;100.00;95325.69;6157425;23;20175;-84
2023/11/14 04:03:25;;;;;;;6.50;2.00;;;;;;;12.09;100.00;95320.53;6153460;23;20542;-84
2023/11/14 04:05:51;;;;;;;5.67;1.93;;;;;;;12.15;100.00;95323.31;6153333;23;20198;-85
2023/11/14 04:08:19;;;;;;;3.77;1.90;;;;;;;12.17;100.00;95344.56;6152103;23;20199;-84
2023/11/14 04:10:45;;;;;;;5.00;2.13;;;;;;;12.20;100.00;95337.25;6153284;23;20186;-84
2023/11/14 04:13:12;;;;;;;3.57;1.47;;;;;;;12.20;100.00;95341.59;6154918;23;20179;-85
2023/11/14 04:15:38;;;;;;;4.67;1.60;;;;;;;12.15;100.00;95347.34;6159515;23;20171;-84
2023/11/14 04:18:05;;;;;;;4.97;1.50;;;;;;;12.23;100.00;95342.03;6158561;23;20225;-85
2023/11/14 04:20:32;;;;;;;5.70;1.60;;;;;;;12.25;100.00;95337.47;6159594;23;20231;-84
2023/11/14 04:22:58;;;;;;;6.07;1.80;;;;;;;12.25;100.00;95332.31;6158853;23;20182;-85
2023/11/14 04:25:26;;;;;;;5.27;2.10;;;;;;;12.30;100.00;95335.13;6159049;23;20199;-84
2023/11/14 04:27:52;;;;;;;4.37;1.97;;;;;;;12.20;100.00;95334.66;6160104;23;20525;-85
2023/11/14 04:30:19;;;;;;;6.47;1.87;;;;;;;12.24;100.00;95355.72;6159702;23;20179;-85
2023/11/14 04:32:45;;;;;;;4.67;1.97;;;;;;;12.28;100.00;95352.56;6160217;23;20187;-85
2023/11/14 04:35:12;;;;;;;3.13;1.60;;;;;;;12.32;100.00;95358.91;6159932;23;20174;-85
2023/11/14 04:37:38;;;;;;;3.67;1.47;;;;;;;12.30;100.00;95344.63;6156783;23;20269;-84
2023/11/14 04:40:06;;;;;;;4.10;1.53;;;;;;;12.28;100.00;95359.53;6158125;23;20175;-84
2023/11/14 04:42:34;;;;;;;5.50;1.53;;;;;;;12.28;100.00;95351.78;6159254;23;20186;-85
2023/11/14 04:45:01;;;;;;;3.60;1.50;;;;;;;12.23;100.00;95352.34;6158396;23;20205;-84
2023/11/14 04:47:27;;;;;;;4.73;2.07;;;;;;;12.30;100.00;95360.13;6158420;23;20198;-85
2023/11/14 04:49:54;;;;;;;6.07;1.60;;;;;;;12.33;100.00;95378.59;6157504;23;20582;-84
2023/11/14 04:52:21;;;;;;;7.40;1.60;;;;;;;12.29;100.00;95395.47;6153640;23;20186;-85
2023/11/14 04:54:48;;;;;;;5.43;1.50;;;;;;;12.28;100.00;95406.78;6155785;23;20210;-85
2023/11/14 04:57:15;;;;;;;3.80;1.30;;;;;;;12.32;100.00;95413.13;6154989;23;20507;-84
2023/11/14 04:59:42;;;;;;;3.90;1.60;;;;;;;12.26;100.00;95405.38;6153887;23;20185;-85
2023/11/14 05:02:10;;;;;;;4.47;1.53;;;;;;;12.30;100.00;95406.59;6153724;23;20179;-84
2023/11/14 05:04:36;;;;;;;3.83;1.60;;;;;;;12.28;100.00;95406.00;6153507;23;20253;-84
2023/11/14 05:07:03;;;;;;;4.37;1.60;;;;;;;12.31;100.00;95439.16;6152405;23;20222;-84
2023/11/14 05:09:29;;;;;;;3.10;1.60;;;;;;;12.25;100.00;95445.88;6151878;23;20186;-84
2023/11/14 05:11:56;;;;;;;3.30;1.50;;;;;;;12.16;100.00;95449.59;6152201;23;20836;-84
2023/11/14 05:14:23;;;;;;;5.97;1.60;;;;;;;12.20;100.00;95439.69;6152598;23;20229;-84
2023/11/14 05:16:56;;;;;;;5.10;1.87;;;;;;;12.24;100.00;95444.28;6154277;23;20206;-85
2023/11/14 05:19:23;;;;;;;3.47;1.70;;;;;;;12.15;100.00;95458.31;6153952;23;20163;-84
2023/11/14 05:21:50;;;;;;;3.50;1.57;;;;;;;12.11;100.00;95464.88;6154090;23;20245;-84
2023/11/14 05:24:17;;;;;;;3.60;1.33;;;;;;;12.09;100.00;95477.94;6151982;23;20179;-85
2023/11/14 05:26:43;;;;;;;2.83;1.77;;;;;;;12.13;100.00;95470.59;6152625;23;20542;-85
2023/11/14 05:29:10;;;;;;;5.03;1.67;;;;;;;11.94;100.00;95472.06;6152025;23;20669;-84
2023/11/14 05:31:37;;;;;;;3.43;1.67;;;;;;;11.96;100.00;95472.69;6153238;23;20189;-84
2023/11/14 05:34:05;;;;;;;2.70;1.57;;;;;;;12.04;100.00;95495.78;6153883;23;20233;-84
2023/11/14 05:36:32;;;;;;;4.80;1.67;;;;;;;12.05;100.00;95489.63;6152847;23;20229;-84
2023/11/14 05:38:58;;;;;;;2.70;1.53;;;;;;;11.99;100.00;95482.63;6152741;23;20178;-84
2023/11/14 05:41:25;;;;;;;2.93;1.50;;;;;;;12.02;100.00;95487.41;6152510;23;20186;-84
2023/11/14 05:43:51;;;;;;;3.93;1.53;;;;;;;12.05;100.00;95481.88;6152060;23;20539;-84
2023/11/14 05:46:18;;;;;;;3.13;1.63;;;;;;;12.07;100.00;95479.91;6152396;23;20195;-84
2023/11/14 05:48:44;;;;;;;3.73;1.53;;;;;;;12.03;100.00;95477.91;6152804;23;20194;-84
2023/11/14 05:51:12;;;;;;;4.20;1.40;;;;;;;11.98;100.00;95482.81;6151848;23;20202;-84
2023/11/14 05:53:39;;;;;;;2.83;1.60;;;;;;;11.97;100.00;95489.75;6153985;23;20190;-84
2023/11/14 05:56:07;;;;;;;2.73;1.40;;;;;;;12.00;100.00;95514.38;6155797;23;20291;-84
2023/11/14 05:58:34;;;;;;;2.50;1.47;;;;;;;11.97;100.00;95522.50;6156409;23;20206;-84
2023/11/14 06:01:01;;;;;;;5.00;1.70;;;;;;;11.97;100.00;95527.66;6154999;23;20171;-84
2023/11/14 06:03:28;;;;;;;4.17;1.33;;;;;;;11.96;100.00;95520.91;6154284;23;20187;-84
2023/11/14 06:05:54;;;;;;;4.47;1.23;;;;;;;12.05;100.00;95530.13;6154062;23;20574;-83
2023/11/14 06:08:22;;;;;;;3.50;1.57;;;;;;;12.07;100.00;95531.53;6154355;23;20195;-84
2023/11/14 06:10:48;;;;;;;4.63;1.37;;;;;;;12.08;100.00;95535.72;6154212;23;20262;-84
2023/11/14 06:13:16;;;;;;;2.53;1.50;;;;;;;12.10;100.00;95541.50;6152589;23;20599;-83
2023/11/14 06:15:43;;;;;;;2.60;1.40;;;;;;;12.03;100.00;95529.50;6153766;23;20519;-84
2023/11/14 06:18:09;;;;;;;2.40;1.40;;;;;;;12.03;100.00;95537.25;6153937;23;20206;-83
2023/11/14 06:20:36;;;;;;;1.93;1.30;;;;;;;12.03;100.00;95548.38;6153706;23;20189;-85
2023/11/14 06:23:03;;;;;;;1.80;1.13;;;;;;;11.96;100.00;95549.28;6153967;23;20553;-84
2023/11/14 06:25:30;;;;;;;1.67;1.10;;;;;;;11.90;100.00;95527.63;6154155;23;20206;-84
2023/11/14 06:27:57;;;;;;;1.30;1.20;;;;;;;11.85;100.00;95519.63;6154448;23;20526;-83
2023/11/14 06:30:23;;;;;;;4.67;1.13;;;;;;;11.89;100.00;95518.28;6154601;23;20551;-84
2023/11/14 06:32:50;;;;;;;1.93;0.90;;;;;;;11.77;100.00;95523.13;6155610;23;20174;-85
2023/11/14 06:35:16;;;;;;;1.43;1.17;;;;;;;11.72;100.00;95520.28;6154815;23;20186;-85
2023/11/14 06:37:44;;;;;;;1.40;0.83;;;;;;;11.69;100.00;95525.81;6156747;23;20202;-85
2023/11/14 06:40:12;;;;;;;1.83;1.17;;;;;;;11.59;100.00;95533.03;6154779;23;20228;-85
2023/11/14 06:42:40;;;;;;;1.57;1.10;;;;;;;11.60;100.00;95537.22;6155752;23;20179;-84
2023/11/14 06:45:07;;;;;;;1.57;1.00;;;;;;;11.72;100.00;95529.81;6154702;23;20195;-84
2023/11/14 06:47:33;;;;;;;1.87;0.90;;;;;;;11.61;100.00;95522.56;6154553;23;20195;-84
2023/11/14 06:50:00;;;;;;;1.30;0.97;;;;;;;11.67;100.00;95538.09;6154439;23;20174;-84
2023/11/14 06:52:26;;;;;;;2.90;0.90;;;;;;;11.65;100.00;95510.88;6154062;23;20577;-84
2023/11/14 06:54:52;;;;;;;2.10;1.17;;;;;;;11.56;100.00;95517.13;6155289;23;20182;-84
2023/11/14 06:57:20;;;;;;;1.23;1.00;;;;;;;11.62;100.00;95506.09;6155580;23;20595;-84
2023/11/14 06:59:48;;;;;;;1.80;1.10;;;;;;;11.54;100.00;95501.88;6155497;23;20179;-85
2023/11/14 07:02:14;;;;;;;1.27;0.97;;;;;;;11.52;100.00;95501.25;6156148;23;20179;-84
2023/11/14 07:04:40;;;;;;;1.50;0.90;;;;;;;11.48;100.00;95494.06;6154723;23;20506;-85
2023/11/14 07:07:07;;;;;;;2.03;0.97;;;;;;;11.45;100.00;95491.84;6155377;23;20199;-84
2023/11/14 07:09:34;;;;;;;2.37;1.20;;;;;;;11.44;100.00;95496.22;6155565;23;20496;-84
2023/11/14 07:12:01;;;;;;;1.93;1.00;;;;;;;11.44;100.00;95488.47;6156457;23;20579;-84
2023/11/14 07:14:29;;;;;;;1.67;0.93;;;;;;;11.37;100.00;95493.56;6158964;23;20179;-85
2023/11/14 07:16:57;;;;;;;2.77;1.37;;;;;;;11.40;100.00;95500.13;6158916;23;20277;-84
2023/11/14 07:19:23;;;;;;;2.23;0.93;;;;;;;11.37;100.00;95501.28;6158887;23;20206;-84
2023/11/14 07:21:49;;;;;;;1.43;1.00;;;;;;;11.32;100.00;95513.16;6156497;23;20182;-84
2023/11/14 07:24:16;;;;;;;0.90;0.80;;;;;;;11.39;100.00;95516.56;6154350;23;20808;-85
2023/11/14 07:26:44;;;;;;;1.30;1.10;;;;;;;11.40;100.00;95534.44;6157426;23;20206;-84
2023/11/14 07:29:11;;;;;;;2.30;1.10;;;;;;;11.38;100.00;95523.50;6158200;23;20229;-85
2023/11/14 07:31:38;;;;;;;1.57;1.20;;;;;;;11.38;100.00;95533.81;6156007;23;20650;-84
2023/11/14 07:34:06;;;;;;;3.43;1.30;;;;;;;11.38;100.00;95528.66;6154508;23;20244;-85
2023/11/14 07:36:32;;;;;;;3.33;1.30;;;;;;;11.49;100.00;95531.75;6156024;23;20171;-85
2023/11/14 07:38:59;;;;;;;2.13;1.20;;;;;;;11.52;100.00;95547.69;6156540;23;20186;-84
2023/11/14 07:41:25;;;;;;;1.50;1.00;;;;;;;11.60;100.00;95542.38;6156666;23;20194;-84
2023/11/14 07:43:52;;;;;;;2.73;1.00;;;;;;;11.59;100.00;95534.81;6154886;23;20178;-85
2023/11/14 07:46:18;;;;;;;1.87;0.87;;;;;;;11.65;100.00;95534.91;6158653;23;20202;-85
2023/11/14 07:48:45;;;;;;;1.03;0.93;;;;;;;11.59;100.00;95529.66;6159290;23;20282;-85
2023/11/14 07:51:12;;;;;;;0.80;0.80;;;;;;;11.60;100.00;95515.78;6156738;23;20179;-85
2023/11/14 07:53:39;;;;;;;1.43;0.87;;;;;;;11.54;100.00;95508.81;6157363;23;20187;-84
2023/11/14 07:56:06;;;;;;;1.17;0.90;;;;;;;11.54;100.00;95493.34;6158086;23;20175;-85
2023/11/14 07:58:32;;;;;;;0.90;0.73;;;;;;;11.53;100.00;95489.97;6156175;23;20202;-84
2023/11/14 08:00:58;;;;;;;1.23;0.93;;;;;;;11.50;100.00;95487.75;6157791;23;20198;-85
2023/11/14 08:03:25;;;;;;;0.90;0.90;;;;;;;11.50;100.00;95492.91;6157226;23;20181;-84
2023/11/14 08:05:51;;;;;;;1.80;0.80;;;;;;;11.53;100.00;95509.78;6155282;23;20206;-84
2023/11/14 08:08:19;;;;;;;0.93;0.70;;;;;;;11.52;100.00;95495.31;6156238;23;20198;-85
2023/11/14 08:10:46;;;;;;;1.07;0.80;;;;;;;11.56;100.00;95504.25;6158378;23;20186;-85
2023/11/14 08:13:12;;;;;;;1.37;0.80;;;;;;;11.65;100.00;95503.16;6158806;23;20175;-85
2023/11/14 08:15:38;;;;;;;0.73;0.73;;;;;;;11.74;100.00;95507.19;6155859;23;20186;-85
2023/11/14 08:18:05;;;;;;;2.10;0.70;;;;;;;11.75;100.00;95493.31;6155325;23;20195;-84
2023/11/14 08:20:32;;;;;;;1.67;0.90;;;;;;;11.73;100.00;95493.53;6156134;23;20233;-84
2023/11/14 08:22:58;;;;;;;0.73;0.70;;;;;;;11.72;100.00;95475.66;6155599;23;20187;-84
2023/11/14 08:25:26;;;;;;;0.90;0.70;;;;;;;11.68;100.00;95461.53;6154798;23;20270;-84
2023/11/14 08:27:53;;;;;;;1.43;0.80;;;;;;;11.70;100.00;95442.31;6155136;23;20349;-85
2023/11/14 08:30:19;;;;;;;1.20;0.60;;;;;;;11.73;99.05;95417.94;6156090;23;20185;-84
2023/11/14 08:32:47;;;;;;;0.80;0.73;;;;;;;11.71;98.45;95407.00;6157168;23;20175;-84
2023/11/14 08:35:13;;;;;;;1.37;0.70;;;;;;;11.83;98.83;95409.88;6158972;23;20567;-85
2023/11/14 08:37:39;;;;;;;1.40;0.90;;;;;;;11.77;98.47;95407.06;6158061;23;20229;-85
2023/11/14 08:40:09;;;;;;;0.80;0.80;;;;;;;11.90;99.05;95429.59;6158338;23;20179;-84
2023/11/14 08:42:37;;;;;;;2.30;0.83;;;;;;;11.97;98.52;95416.72;6156478;23;20270;-84
2023/11/14 08:45:04;;;;;;;2.27;1.20;;;;;;;12.05;98.95;95430.28;6159318;23;20243;-85
2023/11/14 08:47:31;;;;;;;1.47;1.10;;;;;;;12.05;98.78;95445.75;6157896;23;20198;-85
2023/11/14 08:49:57;;;;;;;1.77;0.77;;;;;;;12.01;99.36;95470.34;6159297;23;20183;-85
2023/11/14 08:52:24;;;;;;;2.10;0.77;;;;;;;12.03;100.00;95501.13;6158402;23;20201;-85
2023/11/14 08:54:50;;;;;;;1.57;0.60;;;;;;;12.09;100.00;95493.44;6158796;23;20170;-84
2023/11/14 08:57:16;;;;;;;0.80;0.70;;;;;;;12.01;100.00;95479.84;6158067;23;20190;-84
2023/11/14 08:59:46;;;;;;;0.70;0.63;;;;;;;12.09;100.00;95492.63;6159128;23;20178;-85
2023/11/14 09:02:12;;;;;;;0.77;0.77;;;;;;;12.11;100.00;95482.94;6159307;23;20246;-85
2023/11/14 09:04:40;;;;;;;0.60;0.60;;;;;;;12.16;100.00;95474.59;6159781;23;20274;-84
2023/11/14 09:07:07;;;;;;;0.70;0.53;;;;;;;12.07;100.00;95492.03;6159673;23;20249;-84
2023/11/14 09:09:33;;;;;;;1.10;0.67;;;;;;;12.04;100.00;95506.09;6159506;23;20175;-84
2023/11/14 09:12:00;;;;;;;0.73;0.73;;;;;;;12.01;100.00;95495.34;6160529;23;20186;-84
2023/11/14 09:14:26;;;;;;;0.50;0.50;;;;;;;11.98;100.00;95469.91;6159950;23;20686;-84
2023/11/14 09:16:56;;;;;;;0.60;0.60;;;;;;;11.97;97.94;95427.81;6159637;23;20201;-84
2023/11/14 09:19:24;;;;;;;0.67;0.60;;;;;;;12.03;94.65;95388.38;6158902;23;20178;-84
2023/11/14 09:21:51;;;;;;;0.50;0.50;;;;;;;12.03;92.46;95362.56;6159280;23;20210;-84
2023/11/14 09:24:17;;;;;;;0.80;0.60;;;;;;;12.04;90.53;95333.19;6158673;23;20183;-84
2023/11/14 09:26:44;;;;;;;0.50;0.50;;;;;;;12.05;87.65;95282.38;6157256;23;20556;-86
2023/11/14 09:29:10;;;;;;;0.57;0.57;;;;;;;12.12;86.90;95266.94;6157482;23;20181;-84
2023/11/14 09:31:36;;;;;;;2.53;0.70;;;;;;;12.17;84.95;95233.59;6155030;23;20185;-84
2023/11/14 09:34:05;;;;;;;0.97;0.60;;;;;;;12.04;83.23;95173.22;6156546;23;20186;-84
2023/11/14 09:36:31;;;;;;;0.50;0.50;;;;;;;12.08;82.54;95156.38;6162227;23;20175;-85
2023/11/14 09:38:57;;;;;;;0.97;0.80;;;;;;;12.06;81.20;95147.22;6161078;23;20200;-84
2023/11/14 09:41:24;;;;;;;0.70;0.70;;;;;;;11.99;78.71;95099.97;6158621;23;20182;-84
2023/11/14 09:43:51;;;;;;;0.57;0.57;;;;;;;11.97;77.71;95076.16;6155962;23;20179;-83
2023/11/14 09:46:17;;;;;;;3.10;0.80;;;;;;;11.96;76.58;95022.97;6157516;23;20198;-84
2023/11/14 09:48:45;;;;;;;0.77;0.60;;;;;;;11.97;76.12;95006.50;6154491;23;20538;-84
2023/11/14 09:51:14;;;;;;;1.37;0.70;;;;;;;11.83;73.96;94894.78;6155686;23;20179;-84
2023/11/14 09:53:44;;;;;;;0.77;0.53;;;;;;;11.84;73.70;94878.34;6156997;23;20186;-84
2023/11/14 09:56:11;;;;;;;0.97;0.60;;;;;;;11.81;72.90;94877.94;6158415;23;20202;-85
2023/11/14 09:58:37;;;;;;;1.23;0.70;;;;;;;11.76;71.29;94850.97;6156332;23;20202;-83
2023/11/14 10:01:04;;;;;;;0.60;0.60;;;;;;;11.81;72.01;94891.63;6159337;23;20186;-84
2023/11/14 10:03:31;;;;;;;1.30;0.80;;;;;;;11.84;71.60;94888.66;6157106;23;20181;-84
2023/11/14 10:05:58;;;;;;;0.67;0.60;;;;;;;11.86;71.12;94872.97;6158623;23;20189;-84
2023/11/14 10:08:26;;;;;;;1.03;0.70;;;;;;;11.86;70.15;94844.59;6157321;23;20206;-84
2023/11/14 10:11:08;;;;;;;1.33;0.80;;;;;;;11.89;69.79;94841.63;6154362;23;20183;-84
2023/11/14 10:13:35;;;;;;;0.87;0.60;;;;;;;11.94;69.99;94837.41;6154170;23;20175;-84
2023/11/14 10:16:20;;;;;;;0.77;0.70;;;;;;;11.97;69.10;94806.06;6153542;23;20179;-84
2023/11/14 10:18:48;;;;;;;1.80;0.60;;;;;;;11.98;68.42;94761.22;6154511;23;20230;-84
2023/11/14 10:21:28;;;;;;;1.03;0.70;;;;;;;12.12;68.99;94782.59;6153466;23;20186;-84
2023/11/14 10:23:57;;;;;;;0.50;0.50;;;;;;;12.04;68.63;94759.59;6153408;23;20181;-84
2023/11/14 10:26:24;;;;;;;0.93;0.60;;;;;;;12.12;68.88;94756.00;6154572;23;20186;-84
2023/11/14 10:28:52;;;;;;;1.33;0.60;;;;;;;12.17;68.79;94746.63;6154077;23;20202;-84
2023/11/14 10:31:33;;;;;;;0.80;0.60;;;;;;;12.20;68.92;94743.66;6153016;23;20179;-84
2023/11/14 10:33:59;;;;;;;0.60;0.60;;;;;;;12.26;68.33;94731.72;6153710;23;20182;-85
2023/11/14 10:36:26;;;;;;;0.93;0.50;;;;;;;12.32;68.29;94743.75;6154102;23;20179;-84
2023/11/14 10:39:04;;;;;;;1.43;0.70;;;;;;;12.34;68.08;94721.91;6155478;23;20210;-84
2023/11/14 10:41:31;;;;;;;0.50;0.50;;;;;;;12.36;67.82;94712.19;6153669;23;20225;-84
2023/11/14 10:44:06;;;;;;;1.43;0.63;;;;;;;12.30;67.41;94701.91;6153908;23;20249;-84
2023/11/14 10:46:33;;;;;;;1.33;0.80;;;;;;;12.32;67.93;94729.06;6152949;23;20612;-85
2023/11/14 10:49:01;;;;;;;0.83;0.60;;;;;;;12.32;67.47;94697.31;6154285;23;20234;-84
2023/11/14 10:51:29;;;;;;;1.03;0.80;;;;;;;12.27;67.74;94705.69;6154081;23;20731;-84
2023/11/14 10:53:57;;;;;;;1.03;0.60;;;;;;;12.37;68.39;94734.41;6153566;23;20194;-84
2023/11/14 10:56:27;;;;;;;1.43;0.60;;;;;;;12.45;68.13;94720.47;6153729;23;20557;-84
2023/11/14 10:58:55;;;;;;;0.70;0.70;;;;;;;12.44;67.91;94691.28;6160725;23;20199;-84
2023/11/14 11:01:22;;;;;;;1.53;1.07;;;;;;;12.36;67.75;94694.09;6154796;23;20186;-85
2023/11/14 11:03:49;;;;;;;3.13;2.67;;;;;;;12.43;68.38;94719.88;6155866;23;20210;-84
2023/11/14 11:06:16;;;;;;;0.80;0.73;;;;;;;12.40;67.96;94699.66;6155324;23;20523;-84
2023/11/14 11:08:42;;;;;;;1.43;0.70;;;;;;;12.38;68.39;94728.25;6156378;23;20199;-84
2023/11/14 11:11:10;;;;;;;0.67;0.67;;;;;;;12.32;68.55;94723.91;6156609;23;20181;-84
2023/11/14 11:13:40;;;;;;;1.07;0.70;;;;;;;12.40;68.87;94739.16;6156591;23;20257;-85
2023/11/14 11:16:07;;;;;;;1.07;0.87;;;;;;;12.35;68.85;94720.13;6158152;23;20546;-84
2023/11/14 11:18:35;;;;;;;0.90;0.60;;;;;;;12.36;68.88;94732.03;6155832;23;20578;-84
2023/11/14 11:21:09;;;;;;;1.03;0.60;;;;;;;12.34;68.88;94739.19;6155820;23;20181;-85
2023/11/14 11:24:13;;;;;;;0.60;0.60;;;;;;;12.29;69.69;94745.00;6160499;23;20202;-83
2023/11/14 11:27:12;;;;;;;0.80;0.60;;;;;;;12.38;70.53;94776.50;6162437;23;20209;-84